KCVO/CVO METAR and TAF weather

Enter ICAO airport designator
Station Type Date Time Source
KCVO METAR 2019/08/22 08:56 UTC NOAA

KCVO 220856Z AUTO 30003KT 10SM OVC035 16/14 A3004 RMK AO2 SLP172 T01560144 53001


Station Type Date Time Source
KCVO Decoded METAR 2019/08/22 08:56 UTC NOAA

Station name not available
Aug 22, 2019 - 04:56 AM EDT / 2019.08.22 0856 UTC
Wind: from the WNW (300 degrees) at 3 MPH (3 KT):0
Visibility: 10 mile(s):0
Sky conditions: overcast
Temperature: 60.1 F (15.6 C)
Dew Point: 57.9 F (14.4 C)
Relative Humidity: 92%
Pressure (altimeter): 30.04 in. Hg (1017 hPa)
Pressure tendency: 0.00 inches (0.1 hPa) higher than three hours ago
ob: KCVO 220856Z AUTO 30003KT 10SM OVC035 16/14 A3004 RMK AO2 SLP172 T01560144 53001
cycle: 9

Station Type Date Time Source
KCVO TAF UTC NOAA

Error!

Example: see airport list